Time;durP1;ratioP1;P1;durP2;ratioP2;P2;SDS_P1;SDS_P2;PMS_P1;PMS_P2;Temp;Humidity;BMP_temperature;BMP_pressure;BME280_temperature;BME280_humidity;BME280_pressure;Samples;Min_cycle;Max_cycle;Signal;HPM_P1;HPM_P2
2021/05/18 00:00:44;;;;;;;0.97;0.60;;;9.80;84.10;;;;;;5131181;27;20514;-74
2021/05/18 00:03:20;;;;;;;0.70;0.60;;;9.70;84.60;;;;;;5136772;27;20858;-75
2021/05/18 00:05:58;;;;;;;1.30;0.90;;;9.70;85.30;;;;;;5128722;27;20469;-75
2021/05/18 00:11:42;;;;;;;2.63;0.70;;;9.90;84.80;;;;;;5127349;27;20470;-76
2021/05/18 00:11:47;;;;;;;1.70;0.80;;;10.10;83.20;;;;;;5131090;27;20829;-76
2021/05/18 00:14:25;;;;;;;1.80;0.83;;;10.00;83.30;;;;;;5128081;27;20447;-76
2021/05/18 00:17:00;;;;;;;2.07;1.20;;;10.00;83.20;;;;;;5138945;27;20508;-75
2021/05/18 00:19:35;;;;;;;1.70;0.80;;;10.00;83.60;;;;;;5127377;27;20443;-75
2021/05/18 00:22:10;;;;;;;1.03;1.03;;;10.00;83.90;;;;;;5134105;27;20492;-75
2021/05/18 00:24:42;;;;;;;1.20;0.90;;;10.10;83.60;;;;;;5133102;27;20456;-75
2021/05/18 00:27:19;;;;;;;1.90;1.13;;;10.20;83.30;;;;;;5128628;27;20536;-76
2021/05/18 00:29:54;;;;;;;1.20;0.90;;;10.20;83.30;;;;;;5128243;27;20820;-75
2021/05/18 00:32:29;;;;;;;3.60;0.97;;;10.20;83.20;;;;;;5135660;27;20836;-75
2021/05/18 00:35:04;;;;;;;3.23;0.90;;;10.30;83.00;;;;;;5126702;27;20460;-75
2021/05/18 00:37:36;;;;;;;1.37;1.00;;;10.30;83.20;;;;;;5129550;27;20473;-76
2021/05/18 00:40:15;;;;;;;2.60;1.10;;;10.30;82.70;;;;;;5124252;27;20450;-75
2021/05/18 00:42:56;;;;;;;1.27;1.20;;;10.30;82.70;;;;;;5124547;27;20436;-76
2021/05/18 00:45:39;;;;;;;1.83;1.20;;;10.30;83.00;;;;;;5132160;27;20530;-75
2021/05/18 00:48:14;;;;;;;1.70;1.10;;;10.30;82.80;;;;;;5130551;27;20445;-75
2021/05/18 00:50:49;;;;;;;1.23;0.90;;;10.30;82.80;;;;;;5128203;27;20536;-77
2021/05/18 00:53:24;;;;;;;2.00;1.30;;;10.40;82.70;;;;;;5127958;27;20475;-76
2021/05/18 00:56:03;;;;;;;1.30;1.20;;;10.40;82.60;;;;;;5127491;27;20879;-76
2021/05/18 00:58:39;;;;;;;1.67;1.57;;;10.40;83.00;;;;;;5129791;27;20434;-75
2021/05/18 01:01:20;;;;;;;2.80;1.40;;;10.40;82.60;;;;;;5126136;27;20464;-76
2021/05/18 01:03:57;;;;;;;1.60;1.50;;;10.40;82.50;;;;;;5130673;27;20479;-75
2021/05/18 01:06:34;;;;;;;1.40;1.33;;;10.40;82.20;;;;;;5131692;27;20478;-75
2021/05/18 01:09:13;;;;;;;2.27;1.60;;;10.40;82.00;;;;;;5131854;27;20514;-76
2021/05/18 01:11:51;;;;;;;2.63;1.30;;;10.50;82.10;;;;;;5132960;27;20452;-75
2021/05/18 01:14:26;;;;;;;1.90;1.67;;;10.50;82.00;;;;;;5138696;27;20445;-75
2021/05/18 01:17:01;;;;;;;2.50;1.70;;;10.50;81.70;;;;;;5130763;27;20977;-75
2021/05/18 01:19:36;;;;;;;2.23;1.63;;;10.50;81.70;;;;;;5137813;27;20529;-74
2021/05/18 01:22:11;;;;;;;2.00;1.70;;;10.50;81.60;;;;;;5136550;27;20491;-75
2021/05/18 01:24:46;;;;;;;2.37;2.00;;;10.50;81.70;;;;;;5137472;27;20486;-75
2021/05/18 01:27:21;;;;;;;1.90;1.80;;;10.60;81.80;;;;;;5158255;27;20443;-75
2021/05/18 01:29:55;;;;;;;3.97;2.30;;;10.50;81.70;;;;;;5151297;27;20628;-74
2021/05/18 01:32:30;;;;;;;3.00;1.70;;;10.50;81.80;;;;;;5151428;27;20899;-75
2021/05/18 01:35:05;;;;;;;2.97;1.77;;;10.50;81.70;;;;;;5148489;27;20438;-75
2021/05/18 01:37:42;;;;;;;1.90;1.70;;;10.60;81.70;;;;;;5137056;27;21512;-76
2021/05/18 01:43:05;;;;;;;1.73;1.63;;;10.60;81.70;;;;;;5109611;27;20469;-76
2021/05/18 01:45:42;;;;;;;2.73;1.63;;;10.60;81.70;;;;;;5130999;27;20532;-75
2021/05/18 01:48:17;;;;;;;3.40;1.70;;;10.60;81.40;;;;;;5131456;27;21278;-75
2021/05/18 01:50:54;;;;;;;3.07;1.73;;;10.60;81.70;;;;;;5134339;27;20470;-75
2021/05/18 01:53:29;;;;;;;1.87;1.77;;;10.60;81.50;;;;;;5133863;27;20480;-75
2021/05/18 01:56:17;;;;;;;2.03;1.87;;;10.60;81.50;;;;;;5135029;27;20437;-76
2021/05/18 01:58:52;;;;;;;2.97;1.87;;;10.60;81.80;;;;;;5138275;27;20440;-76
2021/05/18 02:01:26;;;;;;;1.90;1.80;;;10.60;81.60;;;;;;5136043;27;20448;-76
2021/05/18 02:04:01;;;;;;;3.20;1.77;;;10.60;81.10;;;;;;5135462;27;20445;-74
2021/05/18 02:06:37;;;;;;;2.97;1.83;;;10.60;81.10;;;;;;5138202;27;20457;-75
2021/05/18 02:09:12;;;;;;;3.10;2.00;;;10.60;81.10;;;;;;5133591;27;20536;-74
2021/05/18 02:11:48;;;;;;;1.93;1.70;;;10.60;81.30;;;;;;5129040;27;20511;-74
2021/05/18 02:14:26;;;;;;;1.63;1.50;;;10.50;81.10;;;;;;5134070;27;20465;-75
2021/05/18 02:17:06;;;;;;;1.50;1.40;;;10.50;81.00;;;;;;5132777;27;20563;-75
2021/05/18 02:20:08;;;;;;;2.10;2.00;;;10.50;81.40;;;;;;5133651;27;20540;-78
2021/05/18 02:25:38;;;;;;;1.20;1.20;;;10.50;81.20;;;;;;5131807;27;20524;-77
2021/05/18 02:28:13;;;;;;;1.73;1.63;;;10.50;81.30;;;;;;5128370;27;21302;-74
2021/05/18 02:30:48;;;;;;;1.83;1.70;;;10.50;81.20;;;;;;5135578;27;20519;-75
2021/05/18 02:33:23;;;;;;;2.10;1.60;;;10.50;81.20;;;;;;5126104;27;20450;-75
2021/05/18 02:35:57;;;;;;;1.53;1.27;;;10.50;81.30;;;;;;5141059;27;20519;-75
2021/05/18 02:38:32;;;;;;;1.03;1.00;;;10.50;81.00;;;;;;5131306;27;20493;-77
2021/05/18 02:41:08;;;;;;;1.67;1.57;;;10.50;81.00;;;;;;5134093;27;21232;-76
2021/05/18 02:43:46;;;;;;;1.83;1.23;;;10.50;80.90;;;;;;5131332;27;20461;-75
2021/05/18 02:49:09;;;;;;;1.40;1.30;;;10.50;80.90;;;;;;5128624;27;20445;-76
2021/05/18 02:51:46;;;;;;;1.57;1.47;;;10.50;80.60;;;;;;5128514;27;20490;-74
2021/05/18 02:54:24;;;;;;;1.57;1.37;;;10.50;80.60;;;;;;5132853;27;22168;-76
2021/05/18 02:57:02;;;;;;;1.83;1.40;;;10.50;80.40;;;;;;5136809;27;20458;-74
2021/05/18 02:59:36;;;;;;;2.30;1.57;;;10.50;80.50;;;;;;5127694;27;20970;-76
2021/05/18 03:02:11;;;;;;;2.03;1.60;;;10.50;80.50;;;;;;5138082;27;20443;-76
2021/05/18 03:04:46;;;;;;;3.17;1.53;;;10.50;80.20;;;;;;5131075;27;20441;-75
2021/05/18 03:07:18;;;;;;;1.70;1.33;;;10.50;80.70;;;;;;5131095;27;20513;-75
2021/05/18 03:09:53;;;;;;;1.43;1.33;;;10.60;80.50;;;;;;5126991;27;20556;-74
2021/05/18 03:12:30;;;;;;;2.00;1.40;;;10.60;80.40;;;;;;5136153;27;20458;-74
2021/05/18 03:15:06;;;;;;;1.57;1.37;;;10.50;80.30;;;;;;5129109;27;20485;-75
2021/05/18 03:17:37;;;;;;;2.30;1.50;;;10.60;80.40;;;;;;5131594;27;20438;-76
2021/05/18 03:20:15;;;;;;;1.90;1.30;;;10.50;80.40;;;;;;5131531;27;20536;-75
2021/05/18 03:22:51;;;;;;;2.10;1.90;;;10.60;80.80;;;;;;5133644;27;20434;-74
2021/05/18 03:25:26;;;;;;;2.97;1.80;;;10.60;80.70;;;;;;5132036;27;20557;-74
2021/05/18 03:28:02;;;;;;;1.50;1.40;;;10.60;80.50;;;;;;5132768;27;20845;-74
2021/05/18 03:30:51;;;;;;;1.80;1.70;;;10.60;80.60;;;;;;5125168;27;20813;-75
2021/05/18 03:36:16;;;;;;;2.30;2.07;;;10.60;80.50;;;;;;5127230;27;20549;-75
2021/05/18 03:38:53;;;;;;;1.63;1.50;;;10.50;80.40;;;;;;5124186;27;20442;-74
2021/05/18 03:41:30;;;;;;;3.73;1.47;;;10.50;80.90;;;;;;5123424;27;20456;-77
2021/05/18 03:44:14;;;;;;;1.80;1.70;;;10.40;80.80;;;;;;5136057;27;20440;-75
2021/05/18 03:52:29;;;;;;;2.00;1.90;;;10.40;80.90;;;;;;5127627;27;20481;-75
2021/05/18 03:58:32;;;;;;;2.17;1.43;;;10.40;80.90;;;;;;5126518;27;20502;-75
2021/05/18 04:03:49;;;;;;;2.90;2.03;;;10.20;81.50;;;;;;5131265;27;20803;-76
2021/05/18 04:18:02;;;;;;;2.43;1.33;;;10.50;81.00;;;;;;5044270;28;20849;-77
2021/05/18 04:20:46;;;;;;;5.50;1.73;;;10.50;80.60;;;;;;5118422;27;20825;-76
2021/05/18 04:23:30;;;;;;;2.40;1.90;;;10.60;80.50;;;;;;5125861;27;20454;-77
2021/05/18 04:51:59;;;;;;;4.90;1.80;;;11.40;78.00;;;;;;5139479;27;20480;-78
2021/05/18 05:00:18;;;;;;;1.90;1.80;;;11.50;77.20;;;;;;5129014;27;20946;-77
2021/05/18 05:08:40;;;;;;;5.03;2.40;;;11.30;77.20;;;;;;5131892;27;20467;-77
2021/05/18 05:14:24;;;;;;;1.70;1.60;;;11.20;77.70;;;;;;5065829;28;20462;-77
2021/05/18 05:16:59;;;;;;;2.50;1.97;;;11.20;77.70;;;;;;5126834;27;20442;-77
2021/05/18 05:19:33;;;;;;;2.37;1.70;;;11.10;77.70;;;;;;5126733;27;20446;-77
2021/05/18 05:22:09;;;;;;;1.67;1.57;;;11.10;78.10;;;;;;5132795;27;20491;-77
2021/05/18 05:24:45;;;;;;;2.20;1.43;;;11.20;78.00;;;;;;5131705;27;20468;-77
2021/05/18 05:27:20;;;;;;;2.30;1.70;;;11.40;77.60;;;;;;5136002;27;20506;-80
2021/05/18 05:29:55;;;;;;;1.47;1.37;;;11.50;77.50;;;;;;5147208;27;20229;-80
2021/05/18 05:32:34;;;;;;;4.23;1.77;;;11.40;77.30;;;;;;5140533;27;20476;-82
2021/05/18 05:35:10;;;;;;;3.33;1.90;;;11.50;77.10;;;;;;5139160;27;20488;-82
2021/05/18 05:37:52;;;;;;;1.57;1.43;;;11.50;76.90;;;;;;5126963;27;20448;-81
2021/05/18 05:40:28;;;;;;;2.23;1.50;;;11.40;76.90;;;;;;5142428;27;20498;-82
2021/05/18 05:43:02;;;;;;;3.13;1.50;;;11.40;77.00;;;;;;5146901;27;20626;-82
2021/05/18 05:45:42;;;;;;;2.03;1.60;;;11.40;77.00;;;;;;5131328;27;20520;-82
2021/05/18 05:48:18;;;;;;;2.20;1.37;;;11.30;76.90;;;;;;5131934;27;20483;-75
2021/05/18 05:50:53;;;;;;;5.27;1.60;;;11.20;77.30;;;;;;5133983;27;20486;-77
2021/05/18 05:53:28;;;;;;;4.27;1.50;;;11.30;77.50;;;;;;5127830;27;20444;-75
2021/05/18 05:56:04;;;;;;;6.20;2.10;;;11.30;77.50;;;;;;5129313;27;20503;-75
2021/05/18 05:58:39;;;;;;;2.07;1.60;;;11.40;77.50;;;;;;5130493;27;20452;-76
2021/05/18 06:01:13;;;;;;;2.07;1.50;;;11.20;77.50;;;;;;5131671;27;20450;-74
2021/05/18 06:03:48;;;;;;;1.70;1.60;;;11.20;77.40;;;;;;5131869;27;20850;-75
2021/05/18 06:06:21;;;;;;;2.63;1.40;;;11.30;77.40;;;;;;5137954;27;20459;-75
2021/05/18 06:08:56;;;;;;;2.73;1.33;;;11.40;77.30;;;;;;5136899;27;20536;-75
2021/05/18 06:11:40;;;;;;;2.93;1.50;;;11.70;76.70;;;;;;5134679;27;20516;-78
2021/05/18 06:14:25;;;;;;;1.93;1.40;;;12.10;76.20;;;;;;5133808;27;20440;-75
2021/05/18 06:34:32;;;;;;;3.07;1.70;;;12.20;75.00;;;;;;5146131;27;20450;-81
2021/05/18 06:42:46;;;;;;;2.93;1.67;;;12.10;74.80;;;;;;5151986;27;20460;-78
2021/05/18 06:48:14;;;;;;;1.70;1.60;;;12.00;75.10;;;;;;5136951;27;20485;-80
2021/05/18 06:50:50;;;;;;;2.10;1.33;;;12.10;75.40;;;;;;5136736;27;20482;-78
2021/05/18 06:53:31;;;;;;;1.93;1.60;;;12.00;75.10;;;;;;5132321;27;20454;-79
2021/05/18 06:56:06;;;;;;;1.77;1.53;;;12.20;75.40;;;;;;5146078;27;20449;-79
2021/05/18 07:01:33;;;;;;;13.63;2.63;;;12.90;73.90;;;;;;5143494;27;20457;-80
2021/05/18 07:04:09;;;;;;;1.83;1.40;;;13.10;73.50;;;;;;5135473;27;20452;-80
2021/05/18 07:07:04;;;;;;;2.43;1.33;;;12.60;73.50;;;;;;5138062;27;20451;-78
2021/05/18 07:09:39;;;;;;;1.90;1.50;;;12.80;73.10;;;;;;5138492;27;20456;-81
2021/05/18 07:12:14;;;;;;;1.33;1.23;;;13.30;72.90;;;;;;5149869;27;20847;-83
2021/05/18 07:14:49;;;;;;;3.73;1.53;;;13.30;72.00;;;;;;5143710;27;20456;-80
2021/05/18 07:17:32;;;;;;;1.90;1.30;;;13.50;71.40;;;;;;5141764;27;20947;-79
2021/05/18 07:20:08;;;;;;;1.53;1.33;;;13.70;71.20;;;;;;5142138;27;20448;-80
2021/05/18 07:22:51;;;;;;;1.80;1.50;;;13.90;70.30;;;;;;5159614;27;20461;-79
2021/05/18 07:25:27;;;;;;;2.60;2.00;;;14.20;70.30;;;;;;5144368;27;20460;-79
2021/05/18 07:28:11;;;;;;;2.20;1.47;;;14.10;70.30;;;;;;5144684;27;20458;-80
2021/05/18 07:30:55;;;;;;;3.40;1.43;;;14.70;69.50;;;;;;5153038;27;20449;-83
2021/05/18 07:33:45;;;;;;;1.80;1.67;;;14.90;68.10;;;;;;5150986;27;20544;-84
2021/05/18 07:36:20;;;;;;;1.90;1.70;;;15.20;68.20;;;;;;5143189;27;20477;-83
2021/05/18 07:38:56;;;;;;;2.50;1.20;;;15.50;67.40;;;;;;5142278;27;20471;-78
2021/05/18 07:41:32;;;;;;;3.45;1.70;;;15.20;67.00;;;;;;5132006;27;20936;-81
2021/05/18 07:44:08;;;;;;;1.77;1.50;;;15.30;67.20;;;;;;5150996;27;20529;-81
2021/05/18 07:46:44;;;;;;;1.40;1.23;;;14.80;66.30;;;;;;5142639;27;20499;-82
2021/05/18 07:49:27;;;;;;;3.10;2.00;;;14.50;67.40;;;;;;5149477;27;20441;-82
2021/05/18 08:00:51;;;;;;;3.53;1.30;;;16.00;64.80;;;;;;5141419;27;20463;-83
2021/05/18 08:06:23;;;;;;;3.20;1.53;;;15.00;63.90;;;;;;5147083;27;20450;-83
2021/05/18 08:09:09;;;;;;;2.40;1.50;;;14.60;62.80;;;;;;5152954;27;20475;-82
2021/05/18 08:11:41;;;;;;;2.50;1.60;;;13.80;64.30;;;;;;5138573;27;20466;-83
2021/05/18 08:14:18;;;;;;;2.20;1.47;;;13.80;64.70;;;;;;5139908;27;20449;-80
2021/05/18 08:23:08;;;;;;;1.67;1.20;;;15.90;63.50;;;;;;5055971;28;20468;-82
2021/05/18 10:34:51;;;;;;;1.43;1.33;;;15.00;61.50;;;;;;5137668;27;20460;-76
2021/05/18 10:37:44;;;;;;;2.60;1.20;;;14.40;62.10;;;;;;5131015;27;20551;-77
2021/05/18 10:40:34;;;;;;;1.47;1.30;;;14.00;62.70;;;;;;5137386;27;20514;-76
2021/05/18 10:43:29;;;;;;;2.13;1.00;;;14.20;62.30;;;;;;5136592;27;20450;-73
2021/05/18 10:46:23;;;;;;;1.10;0.90;;;14.30;61.50;;;;;;5134914;27;20466;-76
2021/05/18 10:49:20;;;;;;;1.90;1.00;;;14.20;61.40;;;;;;5135828;27;22739;-75
2021/05/18 10:52:03;;;;;;;1.20;1.10;;;14.20;61.10;;;;;;5143108;27;20516;-85
2021/05/18 10:54:40;;;;;;;3.17;1.10;;;15.00;61.70;;;;;;5134110;27;20799;-73
2021/05/18 10:57:31;;;;;;;2.60;1.30;;;15.40;61.40;;;;;;5138954;27;20451;-80
2021/05/18 11:00:10;;;;;;;2.13;1.10;;;15.60;60.60;;;;;;5138307;27;20913;-80
2021/05/18 11:02:46;;;;;;;1.40;0.63;;;15.20;60.10;;;;;;5133076;27;20450;-74
2021/05/18 11:05:22;;;;;;;0.83;0.70;;;14.50;59.50;;;;;;5134811;27;22067;-72
2021/05/18 11:07:55;;;;;;;5.40;1.00;;;14.20;59.50;;;;;;5130025;27;20564;-77
2021/05/18 11:10:39;;;;;;;1.47;0.60;;;14.50;59.80;;;;;;5138044;27;20877;-80
2021/05/18 11:13:16;;;;;;;1.50;0.60;;;15.20;59.60;;;;;;5128857;27;20464;-75
2021/05/18 11:15:51;;;;;;;1.40;0.50;;;15.30;57.90;;;;;;5132292;27;20205;-77
2021/05/18 11:18:32;;;;;;;1.92;0.90;;;14.50;58.10;;;;;;5132438;27;20487;-79
2021/05/18 11:21:12;;;;;;;0.60;0.50;;;15.00;58.00;;;;;;5134088;27;20187;-80
2021/05/18 11:23:47;;;;;;;1.00;0.75;;;15.30;56.00;;;;;;5133455;27;20498;-74
2021/05/18 11:26:19;;;;;;;2.37;0.80;;;15.60;56.60;;;;;;5140657;27;20193;-75
2021/05/18 11:28:55;;;;;;;0.60;0.60;;;16.50;57.60;;;;;;5148103;27;20486;-76
2021/05/18 11:31:32;;;;;;;2.83;0.87;;;17.40;55.20;;;;;;5135763;27;21006;-75
2021/05/18 11:34:08;;;;;;;0.87;0.70;;;17.20;54.10;;;;;;5132735;27;20458;-75
2021/05/18 11:36:45;;;;;;;0.60;0.60;;;16.70;54.20;;;;;;5137042;27;20485;-78
2021/05/18 11:39:20;;;;;;;3.17;1.10;;;16.70;55.00;;;;;;5133700;27;20451;-76
2021/05/18 11:41:56;;;;;;;10.47;2.27;;;16.90;55.00;;;;;;5131956;27;20536;-75
2021/05/18 11:44:43;;;;;;;0.97;0.80;;;17.10;54.90;;;;;;5131734;27;20458;-75
2021/05/18 11:47:18;;;;;;;2.50;1.10;;;16.60;54.90;;;;;;5134331;27;20449;-76
2021/05/18 11:49:53;;;;;;;5.93;1.10;;;16.20;55.50;;;;;;5133376;27;20601;-76
2021/05/18 11:52:28;;;;;;;1.53;1.10;;;16.10;56.00;;;;;;5135931;27;20453;-75
2021/05/18 11:55:02;;;;;;;3.90;1.50;;;15.60;56.00;;;;;;5137731;27;20539;-75
2021/05/18 11:57:41;;;;;;;2.70;1.60;;;15.80;56.50;;;;;;5135883;27;20489;-75
2021/05/18 12:00:26;;;;;;;3.00;1.17;;;15.90;56.80;;;;;;5132187;27;20465;-77
2021/05/18 12:03:09;;;;;;;2.87;1.70;;;17.00;56.90;;;;;;5135971;27;20511;-78
2021/05/18 12:05:56;;;;;;;4.83;1.20;;;18.10;55.70;;;;;;5137174;27;20524;-75
2021/05/18 12:08:39;;;;;;;1.53;1.17;;;17.70;55.40;;;;;;5135327;27;20448;-83
2021/05/18 12:11:24;;;;;;;2.50;1.13;;;18.00;55.50;;;;;;5145220;27;20454;-76
2021/05/18 12:14:00;;;;;;;1.63;1.27;;;18.40;55.10;;;;;;5138213;27;20439;-75
2021/05/18 12:16:42;;;;;;;2.00;1.50;;;18.70;54.50;;;;;;5139459;27;20461;-72
2021/05/18 12:19:19;;;;;;;2.57;1.30;;;17.60;54.80;;;;;;5136031;27;20191;-70
2021/05/18 12:21:53;;;;;;;1.10;1.00;;;17.20;54.00;;;;;;5125560;27;20449;-74
2021/05/18 12:24:29;;;;;;;2.63;1.27;;;17.30;54.70;;;;;;5138296;27;20479;-73
2021/05/18 12:27:06;;;;;;;3.10;0.93;;;17.60;53.60;;;;;;5144547;27;20965;-70
2021/05/18 12:29:44;;;;;;;2.15;0.98;;;17.80;52.70;;;;;;5135032;27;20484;-71
2021/05/18 12:32:36;;;;;;;0.57;0.57;;;17.80;51.90;;;;;;5134252;27;20676;-73
2021/05/18 12:35:23;;;;;;;0.87;0.77;;;17.90;51.70;;;;;;5133744;27;20529;-74
2021/05/18 12:37:58;;;;;;;1.47;0.70;;;18.30;51.20;;;;;;5134711;27;20456;-75
2021/05/18 12:40:38;;;;;;;0.63;0.50;;;18.20;48.90;;;;;;5149185;27;20456;-75
2021/05/18 12:43:22;;;;;;;1.97;0.67;;;18.40;48.20;;;;;;5135969;27;20485;-78
2021/05/18 12:46:13;;;;;;;0.80;0.60;;;18.30;48.40;;;;;;5136942;27;20487;-78
2021/05/18 12:48:53;;;;;;;2.13;0.80;;;18.00;48.20;;;;;;5135732;27;20451;-78
2021/05/18 12:51:29;;;;;;;2.47;0.80;;;18.30;48.40;;;;;;5131143;27;20477;-73
2021/05/18 12:54:08;;;;;;;2.17;0.80;;;17.90;47.60;;;;;;5141275;27;20281;-73
2021/05/18 12:56:43;;;;;;;1.00;0.60;;;17.80;48.70;;;;;;5133311;28;20447;-73
2021/05/18 12:59:18;;;;;;;2.20;0.63;;;18.40;48.90;;;;;;5141463;27;20448;-72
2021/05/18 13:01:53;;;;;;;3.80;0.90;;;18.90;48.30;;;;;;5140971;27;20451;-72
2021/05/18 13:04:29;;;;;;;0.87;0.70;;;18.50;47.50;;;;;;5137864;27;20946;-78
2021/05/18 13:07:01;;;;;;;1.37;0.80;;;18.10;47.40;;;;;;5141326;27;20801;-79
2021/05/18 13:09:36;;;;;;;4.00;1.00;;;17.80;48.10;;;;;;5148459;27;20601;-74
2021/05/18 13:12:16;;;;;;;1.75;0.80;;;18.10;48.20;;;;;;5137952;27;21197;-70
2021/05/18 13:15:04;;;;;;;1.67;0.77;;;17.90;48.00;;;;;;5139453;27;20230;-72
2021/05/18 13:17:39;;;;;;;5.27;1.30;;;17.50;48.00;;;;;;5137994;27;20545;-73
2021/05/18 13:20:16;;;;;;;1.80;1.17;;;18.00;48.50;;;;;;5142803;27;20501;-74
2021/05/18 13:22:55;;;;;;;1.83;0.83;;;18.40;48.80;;;;;;5139184;27;20246;-73
2021/05/18 13:28:24;;;;;;;1.20;0.93;;;18.10;49.60;;;;;;5144184;27;20441;-73
2021/05/18 13:31:11;;;;;;;5.50;1.10;;;18.60;49.80;;;;;;5145237;27;20458;-83
2021/05/18 13:34:08;;;;;;;2.30;1.17;;;18.00;49.90;;;;;;5129885;27;20271;-83
2021/05/18 13:36:48;;;;;;;4.47;0.80;;;18.60;50.40;;;;;;5153095;27;20471;-83
2021/05/18 13:39:26;;;;;;;2.93;1.47;;;18.20;49.30;;;;;;5144949;27;20472;-74
2021/05/18 13:41:58;;;;;;;1.87;0.80;;;18.80;51.00;;;;;;5139414;27;20811;-73
2021/05/18 13:44:33;;;;;;;1.70;0.80;;;19.10;49.00;;;;;;5145218;27;20447;-74
2021/05/18 13:47:07;;;;;;;1.30;0.70;;;18.90;48.80;;;;;;5134122;27;20789;-75
2021/05/18 13:49:44;;;;;;;1.53;0.70;;;18.60;48.40;;;;;;5139449;27;20536;-74
2021/05/18 13:52:20;;;;;;;10.27;2.10;;;18.60;49.10;;;;;;5139359;27;20555;-74
2021/05/18 13:54:56;;;;;;;1.33;0.70;;;18.80;48.90;;;;;;5138856;27;20502;-73
2021/05/18 13:57:31;;;;;;;1.87;0.87;;;19.20;47.90;;;;;;5135163;27;20430;-76
2021/05/18 14:00:09;;;;;;;1.73;0.70;;;18.80;47.50;;;;;;5132221;27;20474;-75
2021/05/18 14:02:44;;;;;;;1.07;0.60;;;18.50;47.10;;;;;;5134676;27;20457;-73
2021/05/18 14:05:23;;;;;;;1.80;0.80;;;18.50;47.50;;;;;;5137934;27;20445;-82
2021/05/18 14:08:28;;;;;;;5.20;1.10;;;18.90;47.10;;;;;;5130371;27;20203;-79
2021/05/18 14:11:07;;;;;;;4.17;1.00;;;18.80;47.00;;;;;;5147289;27;21089;-80
2021/05/18 14:13:54;;;;;;;5.00;0.87;;;18.70;47.00;;;;;;5148083;27;20489;-87
2021/05/18 14:16:49;;;;;;;1.93;0.70;;;18.60;47.80;;;;;;5148745;27;20855;-86
2021/05/18 14:19:40;;;;;;;1.87;0.90;;;17.80;47.00;;;;;;5144916;27;20450;-87
2021/05/18 14:22:18;;;;;;;2.60;0.80;;;17.80;47.10;;;;;;5148678;27;20465;-88
2021/05/18 14:25:21;;;;;;;6.93;1.10;;;18.00;47.70;;;;;;5153103;27;20495;-86
2021/05/18 14:27:57;;;;;;;2.20;0.70;;;18.30;47.20;;;;;;5152639;27;20445;-84
2021/05/18 14:30:51;;;;;;;3.10;0.60;;;17.90;47.20;;;;;;5151983;27;20470;-91
2021/05/18 14:33:37;;;;;;;1.95;0.80;;;18.40;46.40;;;;;;5133831;27;20457;-86
2021/05/18 14:36:28;;;;;;;1.33;0.60;;;18.60;45.60;;;;;;5132434;27;20638;-82
2021/05/18 14:39:23;;;;;;;1.70;0.80;;;18.00;46.40;;;;;;5139850;27;20506;-86
2021/05/18 14:44:54;;;;;;;1.53;0.80;;;17.70;45.60;;;;;;5147070;27;20865;-83
2021/05/18 14:47:33;;;;;;;2.67;0.90;;;17.60;46.40;;;;;;5141212;27;20606;-73
2021/05/18 14:55:49;;;;;;;5.20;0.60;;;16.70;42.70;;;;;;5136484;27;21023;-74
2021/05/18 14:58:25;;;;;;;2.00;0.70;;;16.50;43.00;;;;;;5137949;27;20450;-84
2021/05/18 15:01:00;;;;;;;1.27;0.80;;;16.90;43.00;;;;;;5139387;27;20550;-84
2021/05/18 15:03:41;;;;;;;2.67;0.80;;;16.60;45.70;;;;;;5136887;27;20451;-79
2021/05/18 15:06:16;;;;;;;1.73;0.47;;;16.70;43.40;;;;;;5140838;27;20513;-79
2021/05/18 15:08:48;;;;;;;1.20;0.80;;;16.90;43.30;;;;;;5143840;27;20457;-78
2021/05/18 15:11:24;;;;;;;1.40;0.60;;;16.70;43.40;;;;;;5139167;27;20461;-71
2021/05/18 15:13:59;;;;;;;1.10;0.50;;;16.20;43.30;;;;;;5136988;27;20446;-80
2021/05/18 15:16:34;;;;;;;2.10;0.60;;;16.10;43.60;;;;;;5133497;27;20883;-75
2021/05/18 15:19:09;;;;;;;1.05;0.60;;;15.80;44.50;;;;;;5131219;27;20793;-78
2021/05/18 15:21:44;;;;;;;1.17;0.53;;;15.70;45.00;;;;;;5135303;27;20200;-74
2021/05/18 15:24:25;;;;;;;1.40;0.63;;;15.80;45.00;;;;;;5133181;27;20498;-77
2021/05/18 15:27:00;;;;;;;0.97;0.70;;;15.60;45.20;;;;;;5138050;27;20465;-77
2021/05/18 15:29:37;;;;;;;2.10;1.00;;;15.30;47.20;;;;;;5116619;27;21002;-76
2021/05/18 15:32:12;;;;;;;1.47;0.70;;;15.10;49.00;;;;;;5130809;27;20844;-76
2021/05/18 15:34:47;;;;;;;3.53;1.10;;;14.90;49.80;;;;;;5119979;27;20460;-79
2021/05/18 15:37:22;;;;;;;1.47;1.00;;;14.80;50.20;;;;;;5132138;27;20453;-74
2021/05/18 15:39:57;;;;;;;3.87;0.70;;;14.70;49.80;;;;;;5139573;27;20455;-80
2021/05/18 15:42:32;;;;;;;1.37;0.70;;;14.70;49.90;;;;;;5142974;27;20500;-75
2021/05/18 15:45:09;;;;;;;1.07;0.80;;;14.50;49.40;;;;;;5141226;27;20456;-81
2021/05/18 15:47:44;;;;;;;2.17;0.60;;;14.50;49.80;;;;;;5136704;27;20501;-80
2021/05/18 15:50:18;;;;;;;1.20;0.73;;;14.60;50.10;;;;;;5139226;27;20545;-76
2021/05/18 15:52:53;;;;;;;4.73;1.00;;;14.40;50.30;;;;;;5149556;27;20468;-75
2021/05/18 15:55:28;;;;;;;2.03;1.03;;;14.70;52.30;;;;;;5143353;27;20470;-75
2021/05/18 15:58:03;;;;;;;6.50;1.10;;;15.10;51.50;;;;;;5154617;27;20440;-74
2021/05/18 16:00:35;;;;;;;2.47;1.20;;;15.50;51.60;;;;;;5140823;27;20450;-74
2021/05/18 16:03:11;;;;;;;1.47;0.90;;;15.50;51.30;;;;;;5136853;27;20450;-75
2021/05/18 16:05:48;;;;;;;3.35;0.93;;;15.70;51.30;;;;;;5140712;27;20449;-77
2021/05/18 16:11:14;;;;;;;2.37;1.90;;;15.80;50.40;;;;;;5137640;27;20455;-78
2021/05/18 16:13:55;;;;;;;2.20;1.40;;;16.40;50.20;;;;;;5141593;27;20456;-80
2021/05/18 16:16:31;;;;;;;3.00;1.47;;;16.60;49.90;;;;;;5140203;27;20450;-79
2021/05/18 16:19:08;;;;;;;4.00;0.50;;;16.80;49.50;;;;;;5141239;27;20467;-77
2021/05/18 16:21:43;;;;;;;1.60;1.03;;;16.70;49.30;;;;;;5139380;27;20454;-79
2021/05/18 16:24:20;;;;;;;0.73;0.63;;;16.20;49.40;;;;;;5124741;27;20441;-79
2021/05/18 16:26:55;;;;;;;1.37;1.27;;;16.50;49.70;;;;;;5139002;27;20466;-79
2021/05/18 16:29:31;;;;;;;2.70;0.80;;;16.30;49.60;;;;;;5140472;27;20450;-82
2021/05/18 16:32:07;;;;;;;3.43;1.20;;;16.10;49.80;;;;;;5146322;27;20479;-78
2021/05/18 16:34:53;;;;;;;1.53;1.10;;;15.90;50.10;;;;;;5137906;27;20534;-82
2021/05/18 16:37:28;;;;;;;6.30;1.40;;;16.00;50.10;;;;;;5134384;27;20479;-79
2021/05/18 16:40:04;;;;;;;1.67;0.60;;;16.20;50.10;;;;;;5138831;27;20461;-79
2021/05/18 16:42:39;;;;;;;1.10;0.67;;;16.10;49.50;;;;;;5132591;27;20486;-83
2021/05/18 16:45:16;;;;;;;1.30;0.83;;;15.80;49.30;;;;;;5140896;27;20471;-79
2021/05/18 16:47:52;;;;;;;3.90;1.20;;;15.70;49.90;;;;;;5128871;27;20451;-79
2021/05/18 16:50:27;;;;;;;1.23;0.87;;;15.40;49.90;;;;;;5134081;27;20945;-82
2021/05/18 16:53:03;;;;;;;3.23;1.00;;;15.00;50.00;;;;;;5142836;27;20470;-81
2021/05/18 16:55:38;;;;;;;0.87;0.70;;;14.80;50.80;;;;;;5127230;28;20522;-80
2021/05/18 16:58:13;;;;;;;3.17;1.00;;;14.80;50.90;;;;;;5132760;27;20513;-79
2021/05/18 17:00:46;;;;;;;1.30;0.70;;;14.80;51.20;;;;;;5114870;28;20461;-80
2021/05/18 17:03:23;;;;;;;5.80;1.60;;;15.00;50.80;;;;;;5138048;27;20441;-79
2021/05/18 17:05:59;;;;;;;1.80;0.90;;;15.20;50.50;;;;;;5136865;27;20444;-82
2021/05/18 17:08:33;;;;;;;4.87;1.20;;;15.40;50.40;;;;;;5137051;27;20976;-81
2021/05/18 17:11:08;;;;;;;2.43;0.80;;;15.30;50.40;;;;;;5134959;27;20449;-80
2021/05/18 17:13:43;;;;;;;0.83;0.60;;;15.20;50.30;;;;;;5139133;27;20469;-79
2021/05/18 17:16:20;;;;;;;2.77;0.60;;;15.00;50.10;;;;;;5129983;27;20450;-79
2021/05/18 17:19:04;;;;;;;1.60;1.00;;;15.10;50.40;;;;;;5141681;27;20445;-85
2021/05/18 17:21:41;;;;;;;19.83;2.70;;;15.70;51.00;;;;;;5142794;27;20548;-84
2021/05/18 17:24:16;;;;;;;1.30;0.77;;;18.90;50.20;;;;;;5132330;27;20445;-78
2021/05/18 17:26:51;;;;;;;1.13;0.70;;;21.80;46.20;;;;;;5133083;28;20208;-79
2021/05/18 17:29:25;;;;;;;2.10;1.00;;;22.10;44.80;;;;;;5129964;28;20445;-77
2021/05/18 17:32:01;;;;;;;2.03;0.90;;;19.60;46.50;;;;;;5133148;27;20516;-80
2021/05/18 17:34:37;;;;;;;4.63;1.33;;;18.70;47.10;;;;;;5138159;27;20457;-78
2021/05/18 17:37:09;;;;;;;1.10;0.90;;;17.20;48.60;;;;;;5141901;27;20440;-76
2021/05/18 17:39:44;;;;;;;1.17;0.83;;;16.40;49.50;;;;;;5135508;27;20451;-78
2021/05/18 17:42:19;;;;;;;1.73;1.17;;;18.00;49.80;;;;;;5138773;27;20800;-80
2021/05/18 17:45:00;;;;;;;4.33;1.23;;;22.00;46.30;;;;;;5135720;27;20497;-80
2021/05/18 17:47:35;;;;;;;1.13;0.73;;;23.20;44.90;;;;;;5134424;27;20513;-77
2021/05/18 17:50:13;;;;;;;1.23;0.77;;;23.40;44.50;;;;;;5142804;27;20450;-77
2021/05/18 17:52:49;;;;;;;2.40;0.80;;;23.30;43.80;;;;;;5133721;27;20972;-77
2021/05/18 17:55:24;;;;;;;1.80;0.80;;;23.20;43.90;;;;;;5144286;27;20435;-76
2021/05/18 17:57:56;;;;;;;1.23;0.80;;;22.60;44.30;;;;;;5136924;27;20447;-80
2021/05/18 18:00:31;;;;;;;2.80;1.17;;;22.40;44.30;;;;;;5138443;27;20455;-77
2021/05/18 18:03:05;;;;;;;1.40;0.70;;;22.50;44.10;;;;;;5140374;27;20510;-76
2021/05/18 18:05:48;;;;;;;2.13;0.80;;;22.30;44.10;;;;;;5139975;27;20456;-80
2021/05/18 18:08:29;;;;;;;1.70;1.30;;;22.30;44.30;;;;;;5149366;27;20508;-78